createdAt,value
2022-09-03T00:01:11.243Z,15.60
2022-09-03T00:03:40.665Z,15.60
2022-09-03T00:06:12.267Z,17.60
2022-09-03T00:08:55.179Z,15.70
2022-09-03T00:11:25.641Z,15.70
2022-09-03T00:13:58.985Z,18.00
2022-09-03T00:16:30.070Z,15.60
2022-09-03T00:18:59.755Z,16.60
2022-09-03T00:21:35.483Z,17.30
2022-09-03T00:24:04.346Z,17.70
2022-09-03T00:26:34.604Z,15.70
2022-09-03T00:29:13.507Z,16.60
2022-09-03T00:31:45.277Z,15.60
2022-09-03T00:34:23.298Z,15.60
2022-09-03T00:36:50.339Z,15.60
2022-09-03T00:39:18.812Z,15.60
2022-09-03T00:41:58.044Z,16.30
2022-09-03T00:44:30.917Z,15.60
2022-09-03T00:47:04.712Z,15.60
2022-09-03T00:49:54.830Z,15.60
2022-09-03T00:52:23.176Z,15.60
2022-09-03T00:55:08.854Z,15.60
2022-09-03T00:57:35.457Z,15.60
2022-09-03T01:00:10.003Z,17.80
2022-09-03T01:02:50.001Z,15.70
2022-09-03T01:05:26.857Z,15.70
2022-09-03T01:07:53.592Z,15.70
2022-09-03T01:10:30.802Z,15.80
2022-09-03T01:13:04.589Z,15.80
2022-09-03T01:16:03.748Z,15.80
2022-09-03T01:18:53.271Z,15.80
2022-09-03T01:21:36.619Z,15.70
2022-09-03T01:24:23.257Z,15.60
2022-09-03T01:26:59.225Z,15.60
2022-09-03T01:29:35.628Z,15.60
2022-09-03T01:32:06.608Z,15.60
2022-09-03T01:34:45.367Z,17.40
2022-09-03T01:37:15.958Z,15.70
2022-09-03T01:40:06.026Z,15.80
2022-09-03T01:42:48.556Z,15.80
2022-09-03T01:45:16.413Z,15.90
2022-09-03T01:47:59.160Z,16.00
2022-09-03T01:50:39.816Z,16.00
2022-09-03T01:53:10.578Z,16.00
2022-09-03T01:55:48.999Z,17.90
2022-09-03T01:58:20.149Z,15.90
2022-09-03T02:00:50.784Z,16.90
2022-09-03T02:03:17.821Z,17.30
2022-09-03T02:05:46.891Z,16.00
2022-09-03T02:08:13.901Z,17.80
2022-09-03T02:10:43.510Z,17.20
2022-09-03T02:13:12.071Z,17.00
2022-09-03T02:15:40.591Z,19.20
2022-09-03T02:18:13.689Z,17.20
2022-09-03T02:20:40.467Z,15.90
2022-09-03T02:23:07.147Z,18.90
2022-09-03T02:25:36.833Z,17.30
2022-09-03T02:28:04.624Z,17.50
2022-09-03T02:30:34.187Z,14.40
2022-09-03T02:33:01.367Z,18.20
2022-09-03T02:35:28.408Z,15.80
2022-09-03T02:37:55.104Z,16.80
2022-09-03T02:40:21.967Z,16.10
2022-09-03T02:42:48.971Z,18.00
2022-09-03T02:45:29.067Z,15.80
2022-09-03T02:47:59.191Z,15.70
2022-09-03T02:50:26.383Z,16.70
2022-09-03T02:52:53.323Z,16.70
2022-09-03T02:55:20.129Z,17.50
2022-09-03T02:57:46.986Z,16.60
2022-09-03T03:00:14.092Z,15.40
2022-09-03T03:02:42.166Z,15.40
2022-09-03T03:05:10.480Z,15.30
2022-09-03T03:07:39.789Z,17.20
2022-09-03T03:10:06.739Z,17.00
2022-09-03T03:12:34.018Z,15.20
2022-09-03T03:15:00.990Z,15.20
2022-09-03T03:17:28.901Z,17.00
2022-09-03T03:19:55.548Z,17.90
2022-09-03T03:22:22.309Z,17.00
2022-09-03T03:24:50.542Z,15.80
2022-09-03T03:27:17.225Z,17.50
2022-09-03T03:29:43.952Z,17.00
2022-09-03T03:32:10.626Z,17.80
2022-09-03T03:34:37.702Z,15.50
2022-09-03T03:37:05.993Z,16.90
2022-09-03T03:39:32.816Z,15.60
2022-09-03T03:41:59.478Z,18.10
2022-09-03T03:44:26.525Z,16.10
2022-09-03T03:46:53.837Z,17.90
2022-09-03T03:49:20.659Z,17.90
2022-09-03T03:51:47.303Z,17.80
2022-09-03T03:54:17.507Z,16.60
2022-09-03T03:56:44.567Z,16.70
2022-09-03T03:59:17.546Z,16.20
2022-09-03T04:01:44.247Z,16.90
2022-09-03T04:04:11.000Z,16.90
2022-09-03T04:06:37.683Z,17.30
2022-09-03T04:09:04.323Z,14.70
2022-09-03T04:11:31.117Z,17.10
2022-09-03T04:13:57.859Z,18.20
2022-09-03T04:16:25.961Z,17.60
2022-09-03T04:18:53.703Z,17.50
2022-09-03T04:21:21.755Z,15.90
2022-09-03T04:23:49.473Z,15.80
2022-09-03T04:26:17.549Z,18.20
2022-09-03T04:28:45.678Z,17.40
2022-09-03T04:31:13.269Z,17.00
2022-09-03T04:33:40.741Z,15.90
2022-09-03T04:36:07.501Z,16.00
2022-09-03T04:38:35.404Z,15.70
2022-09-03T04:41:02.380Z,15.80
2022-09-03T04:43:29.407Z,15.80
2022-09-03T04:45:57.499Z,17.20
2022-09-03T04:48:24.381Z,16.90
2022-09-03T04:50:51.193Z,15.90
2022-09-03T04:53:17.876Z,17.30
2022-09-03T04:55:44.660Z,16.80
2022-09-03T04:58:11.416Z,16.10
2022-09-03T05:00:38.137Z,16.10
2022-09-03T05:03:05.292Z,17.50
2022-09-03T05:05:33.783Z,16.20
2022-09-03T05:08:04.262Z,17.30
2022-09-03T05:10:31.434Z,18.70
2022-09-03T05:13:01.822Z,18.20
2022-09-03T05:15:29.681Z,16.20
2022-09-03T05:17:56.915Z,18.80
2022-09-03T05:20:23.727Z,18.20
2022-09-03T05:22:50.460Z,17.50
2022-09-03T05:25:17.123Z,16.30
2022-09-03T05:27:43.838Z,16.30
2022-09-03T05:30:10.906Z,16.30
2022-09-03T05:32:37.677Z,16.30
2022-09-03T05:35:04.534Z,18.00
2022-09-03T05:37:31.284Z,16.40
2022-09-03T05:39:57.984Z,17.50
2022-09-03T05:42:24.674Z,18.50
2022-09-03T05:44:51.422Z,16.50
2022-09-03T05:47:18.095Z,17.70
2022-09-03T05:49:44.782Z,17.80
2022-09-03T05:52:11.557Z,18.50
2022-09-03T05:54:38.594Z,17.80
2022-09-03T05:57:05.355Z,17.50
2022-09-03T05:59:32.069Z,16.70
2022-09-03T06:02:00.299Z,18.80
2022-09-03T06:04:27.305Z,19.00
2022-09-03T06:06:53.976Z,16.80
2022-09-03T06:09:21.327Z,19.00
2022-09-03T06:11:50.409Z,16.80
2022-09-03T06:14:19.250Z,19.10
2022-09-03T06:16:49.398Z,18.90
2022-09-03T06:19:16.276Z,17.00
2022-09-03T06:21:43.519Z,17.40
2022-09-03T06:24:12.013Z,17.10
2022-09-03T06:26:39.331Z,17.20
2022-09-03T06:29:06.377Z,19.20
2022-09-03T06:31:33.076Z,17.30
2022-09-03T06:34:04.029Z,18.20
2022-09-03T06:36:31.053Z,18.70
2022-09-03T06:38:58.502Z,18.30
2022-09-03T06:41:27.148Z,17.50
2022-09-03T06:43:54.846Z,17.40
2022-09-03T06:46:22.927Z,18.90
2022-09-03T06:48:51.288Z,17.60
2022-09-03T06:51:19.272Z,17.60
2022-09-03T06:53:47.409Z,18.50
2022-09-03T06:56:16.583Z,18.10
2022-09-03T06:58:44.458Z,18.40
2022-09-03T07:01:12.963Z,17.90
2022-09-03T07:03:40.886Z,21.00
2022-09-03T07:06:18.347Z,19.50
2022-09-03T07:08:46.510Z,18.20
2022-09-03T07:11:22.018Z,18.80
2022-09-03T07:13:50.043Z,18.50
2022-09-03T07:16:18.360Z,19.50
2022-09-03T07:18:45.731Z,20.30
2022-09-03T07:21:13.621Z,20.70
2022-09-03T07:23:41.992Z,18.70
2022-09-03T07:26:10.230Z,20.00
2022-09-03T07:28:37.646Z,18.90
2022-09-03T07:31:06.155Z,20.10
2022-09-03T07:33:34.127Z,20.60
2022-09-03T07:36:06.272Z,20.80
2022-09-03T07:38:33.664Z,19.20
2022-09-03T07:41:01.214Z,19.30
2022-09-03T07:43:29.324Z,22.50
2022-09-03T07:45:57.108Z,19.50
2022-09-03T07:48:23.961Z,19.60
2022-09-03T07:50:50.656Z,19.70
2022-09-03T07:53:17.373Z,20.90
2022-09-03T07:55:47.301Z,20.60
2022-09-03T07:58:14.393Z,21.00
2022-09-03T08:00:41.135Z,19.90
2022-09-03T08:03:08.902Z,22.30
2022-09-03T08:05:36.317Z,23.30
2022-09-03T08:08:03.827Z,21.90
2022-09-03T08:10:36.114Z,20.40
2022-09-03T08:13:05.669Z,20.60
2022-09-03T08:15:33.022Z,20.70
2022-09-03T08:18:03.737Z,20.80
2022-09-03T08:20:32.702Z,20.80
2022-09-03T08:23:03.096Z,23.30
2022-09-03T08:25:30.086Z,20.70
2022-09-03T08:28:00.361Z,20.90
2022-09-03T08:30:27.695Z,20.80
2022-09-03T08:32:55.078Z,20.80
2022-09-03T08:35:22.556Z,20.90
2022-09-03T08:37:54.823Z,21.00
2022-09-03T08:40:24.323Z,20.90
2022-09-03T08:43:18.900Z,20.80
2022-09-03T08:45:45.807Z,20.80
2022-09-03T08:48:26.060Z,20.80
2022-09-03T08:50:59.270Z,21.00
2022-09-03T08:53:46.196Z,21.20
2022-09-03T08:56:15.075Z,21.30
2022-09-03T08:58:44.894Z,23.50
2022-09-03T09:01:24.822Z,23.10
2022-09-03T09:04:09.953Z,21.30
2022-09-03T09:06:55.412Z,21.30
2022-09-03T09:09:33.409Z,21.40
2022-09-03T09:12:06.307Z,21.60
2022-09-03T09:14:48.811Z,21.60
2022-09-03T09:17:18.621Z,21.60
2022-09-03T09:19:45.345Z,21.50
2022-09-03T09:22:18.652Z,21.60
2022-09-03T09:24:47.126Z,22.30
2022-09-03T09:27:17.544Z,21.40
2022-09-03T09:29:48.006Z,21.30
2022-09-03T09:32:17.596Z,21.30
2022-09-03T09:34:49.888Z,21.40
2022-09-03T09:37:19.175Z,21.40
2022-09-03T09:39:56.949Z,21.50
2022-09-03T09:42:23.911Z,21.50
2022-09-03T09:44:51.057Z,21.50
2022-09-03T09:47:31.771Z,21.60
2022-09-03T09:49:59.807Z,21.60
2022-09-03T09:52:28.786Z,23.40
2022-09-03T09:55:15.788Z,22.90
2022-09-03T09:57:42.841Z,21.60
2022-09-03T10:00:14.406Z,22.60
2022-09-03T10:02:47.183Z,21.50
2022-09-03T10:05:27.792Z,23.20
2022-09-03T10:07:55.414Z,21.50
2022-09-03T10:10:22.655Z,21.60
2022-09-03T10:13:01.888Z,21.60
2022-09-03T10:15:28.602Z,21.70
2022-09-03T10:18:07.790Z,21.70
2022-09-03T10:20:51.923Z,21.70
2022-09-03T10:23:22.049Z,21.80
2022-09-03T10:26:07.628Z,24.40
2022-09-03T10:28:41.674Z,21.80
2022-09-03T10:31:20.930Z,21.80
2022-09-03T10:34:02.885Z,21.80
2022-09-03T10:36:35.701Z,21.80
2022-09-03T10:39:05.674Z,21.90
2022-09-03T10:41:56.000Z,22.90
2022-09-03T10:44:30.470Z,22.10
2022-09-03T10:47:12.803Z,22.20
2022-09-03T10:49:50.267Z,22.20
2022-09-03T10:52:26.841Z,22.30
2022-09-03T10:54:53.819Z,22.30
2022-09-03T10:57:35.282Z,23.40
2022-09-03T11:00:08.585Z,23.80
2022-09-03T11:02:48.287Z,22.10
2022-09-03T11:05:38.401Z,21.90
2022-09-03T11:08:17.340Z,21.80
2022-09-03T11:10:46.435Z,21.60
2022-09-03T11:13:30.296Z,23.30
2022-09-03T11:16:20.456Z,21.40
2022-09-03T11:18:49.385Z,21.20
2022-09-03T11:21:18.408Z,23.40
2022-09-03T11:23:46.858Z,20.90
2022-09-03T11:26:15.812Z,22.30
2022-09-03T11:29:00.880Z,20.40
2022-09-03T11:31:39.195Z,20.10
2022-09-03T11:34:14.151Z,19.80
2022-09-03T11:36:50.207Z,19.60
2022-09-03T11:39:23.358Z,19.50
2022-09-03T11:41:57.504Z,19.30
2022-09-03T11:44:24.535Z,19.10
2022-09-03T11:46:58.064Z,18.80
2022-09-03T11:49:29.725Z,18.50
2022-09-03T11:52:01.362Z,18.30
2022-09-03T11:54:28.704Z,18.10
2022-09-03T11:57:11.765Z,17.90
2022-09-03T11:59:39.419Z,19.30
2022-09-03T12:02:16.968Z,17.30
2022-09-03T12:04:43.793Z,17.00
2022-09-03T12:07:30.252Z,16.90
2022-09-03T12:09:59.964Z,16.70
2022-09-03T12:12:46.300Z,16.40
2022-09-03T12:15:25.059Z,16.10
2022-09-03T12:18:18.245Z,16.00
2022-09-03T12:20:45.740Z,15.90
2022-09-03T12:23:17.032Z,17.10
2022-09-03T12:25:47.488Z,16.10
2022-09-03T12:28:17.599Z,15.80
2022-09-03T12:30:44.591Z,15.80
2022-09-03T12:33:14.331Z,15.80
2022-09-03T12:38:29.641Z,16.00
2022-09-03T12:43:51.693Z,16.30
2022-09-03T12:46:18.735Z,16.10
2022-09-03T12:49:33.652Z,16.20
2022-09-03T12:52:18.825Z,16.30
2022-09-03T12:54:52.623Z,16.50
2022-09-03T12:57:25.538Z,16.80
2022-09-03T12:59:54.611Z,17.00
2022-09-03T13:02:24.473Z,20.20
2022-09-03T13:04:52.797Z,17.50
2022-09-03T13:07:25.008Z,18.70
2022-09-03T13:09:51.875Z,18.00
2022-09-03T13:12:22.499Z,18.40
2022-09-03T13:14:52.416Z,18.40
2022-09-03T13:17:28.142Z,18.90
2022-09-03T13:20:07.203Z,18.60
2022-09-03T13:22:47.449Z,18.70
2022-09-03T13:25:20.351Z,18.80
2022-09-03T13:27:46.987Z,18.40
2022-09-03T13:30:19.587Z,19.60
2022-09-03T13:32:52.254Z,19.00
2022-09-03T13:35:38.037Z,19.10
2022-09-03T13:38:09.012Z,19.10
2022-09-03T13:40:40.544Z,19.20
2022-09-03T13:43:20.418Z,19.30
2022-09-03T13:45:53.094Z,19.40
2022-09-03T13:48:38.660Z,19.50
2022-09-03T13:51:15.963Z,22.60
2022-09-03T13:53:48.730Z,19.50
2022-09-03T13:56:27.412Z,19.40
2022-09-03T13:58:58.488Z,19.40
2022-09-03T14:01:25.581Z,21.10
2022-09-03T14:03:58.499Z,21.20
2022-09-03T14:06:32.071Z,19.50
2022-09-03T14:09:11.866Z,19.50
2022-09-03T14:12:01.925Z,19.60
2022-09-03T14:15:01.111Z,19.70
2022-09-03T14:17:46.565Z,19.80
2022-09-03T14:20:29.925Z,19.80
2022-09-03T14:22:59.478Z,19.80
2022-09-03T14:25:27.246Z,22.90
2022-09-03T14:27:55.312Z,20.00
2022-09-03T14:30:30.441Z,20.50
2022-09-03T14:33:20.473Z,19.90
2022-09-03T14:35:50.191Z,19.90
2022-09-03T14:38:32.287Z,19.90
2022-09-03T14:41:14.273Z,19.90
2022-09-03T14:43:41.111Z,19.90
2022-09-03T14:46:26.765Z,20.00
2022-09-03T14:49:13.226Z,20.10
2022-09-03T14:52:07.603Z,20.10
2022-09-03T14:54:34.422Z,20.20
2022-09-03T14:57:20.022Z,20.30
2022-09-03T15:00:19.981Z,20.40
2022-09-03T15:02:46.916Z,20.40
2022-09-03T15:05:32.529Z,20.50
2022-09-03T15:08:01.047Z,20.60
2022-09-03T15:10:39.270Z,20.60
2022-09-03T15:13:10.719Z,20.60
2022-09-03T15:15:40.610Z,20.60
2022-09-03T15:18:17.413Z,20.70
2022-09-03T15:20:51.932Z,20.70
2022-09-03T15:23:30.544Z,20.60
2022-09-03T15:26:03.223Z,20.50
2022-09-03T15:28:42.263Z,20.40
2022-09-03T15:31:18.658Z,20.40
2022-09-03T15:33:45.368Z,20.30
2022-09-03T15:36:14.961Z,23.20
2022-09-03T15:38:41.725Z,20.20
2022-09-03T15:41:31.676Z,20.30
2022-09-03T15:43:59.772Z,21.20
2022-09-03T15:46:38.980Z,22.30
2022-09-03T15:49:09.028Z,21.80
2022-09-03T15:51:50.003Z,20.90
2022-09-03T15:54:19.378Z,20.30
2022-09-03T15:56:53.306Z,20.30
2022-09-03T15:59:24.282Z,20.30
2022-09-03T16:01:57.333Z,20.20
2022-09-03T16:04:53.568Z,20.20
2022-09-03T16:07:30.676Z,20.20
2022-09-03T16:13:08.801Z,20.20
2022-09-03T16:15:41.845Z,20.10
2022-09-03T16:18:27.568Z,20.00
2022-09-03T16:20:57.274Z,20.00
2022-09-03T16:23:31.269Z,19.90
2022-09-03T16:26:03.922Z,19.80
2022-09-03T16:28:46.963Z,22.90
2022-09-03T16:31:16.766Z,19.90
2022-09-03T16:33:51.313Z,19.90
2022-09-03T16:36:39.553Z,21.50
2022-09-03T16:39:25.203Z,20.00
2022-09-03T16:42:11.621Z,20.20
2022-09-03T16:44:49.132Z,20.30
2022-09-03T16:47:34.614Z,21.50
2022-09-03T16:50:01.263Z,20.50
2022-09-03T16:52:38.122Z,21.50
2022-09-03T16:55:11.425Z,20.70
2022-09-03T16:57:54.828Z,20.80
2022-09-03T17:00:21.985Z,20.70
2022-09-03T17:02:58.557Z,20.80
2022-09-03T17:05:49.674Z,20.70
2022-09-03T17:08:19.508Z,20.60
2022-09-03T17:10:49.011Z,20.50
2022-09-03T17:13:25.025Z,20.40
2022-09-03T17:16:20.337Z,20.30
2022-09-03T17:18:53.856Z,20.30
2022-09-03T17:21:36.029Z,23.20
2022-09-03T17:24:14.397Z,20.10
2022-09-03T17:26:50.368Z,20.00
2022-09-03T17:29:18.080Z,20.00
2022-09-03T17:32:14.056Z,19.90
2022-09-03T17:34:43.736Z,19.70
2022-09-03T17:37:21.222Z,19.60
2022-09-03T17:39:54.439Z,19.50
2022-09-03T17:42:25.393Z,19.40
2022-09-03T17:45:00.494Z,19.30
2022-09-03T17:47:46.467Z,19.10
2022-09-03T17:50:25.041Z,19.00
2022-09-03T17:53:00.943Z,18.90
2022-09-03T17:55:27.735Z,18.80
2022-09-03T17:57:58.741Z,19.90
2022-09-03T18:00:35.151Z,18.70
2022-09-03T18:03:08.090Z,18.60
2022-09-03T18:05:44.355Z,18.50
2022-09-03T18:08:14.372Z,18.40
2022-09-03T18:11:04.286Z,18.30
2022-09-03T18:13:49.852Z,18.30
2022-09-03T18:16:43.119Z,18.20
2022-09-03T18:19:19.294Z,18.10
2022-09-03T18:22:05.995Z,18.10
2022-09-03T18:24:51.565Z,18.00
2022-09-03T18:27:39.562Z,17.80
2022-09-03T18:30:26.497Z,19.20
2022-09-03T18:33:12.009Z,17.70
2022-09-03T18:35:57.475Z,17.60
2022-09-03T18:38:45.115Z,17.50
2022-09-03T18:41:33.763Z,17.50
2022-09-03T18:44:19.150Z,17.30
2022-09-03T18:50:27.488Z,17.30
2022-09-03T18:53:18.596Z,17.20
2022-09-03T18:56:24.377Z,17.20
2022-09-03T18:59:15.975Z,17.30
2022-09-03T19:02:01.519Z,17.10
2022-09-03T19:05:05.757Z,17.10
2022-09-03T19:08:03.642Z,16.90
2022-09-03T19:10:55.292Z,16.90
2022-09-03T19:13:57.522Z,18.80
2022-09-03T19:17:01.904Z,16.70
2022-09-03T19:20:06.193Z,16.70
2022-09-03T19:22:55.739Z,16.60
2022-09-03T19:25:41.531Z,16.60
2022-09-03T19:28:26.963Z,17.40
2022-09-03T19:31:21.763Z,18.10
2022-09-03T19:34:26.149Z,16.50
2022-09-03T19:37:19.202Z,16.50
2022-09-03T19:40:22.002Z,18.40
2022-09-03T19:43:21.913Z,16.50
2022-09-03T19:46:16.015Z,16.50
2022-09-03T19:49:20.627Z,16.50
2022-09-03T19:52:25.361Z,16.40
2022-09-03T19:55:12.455Z,16.40
2022-09-03T19:57:58.719Z,16.40
2022-09-03T20:00:44.221Z,16.40
2022-09-03T20:03:32.191Z,16.40
2022-09-03T20:06:18.074Z,16.40
2022-09-03T20:09:03.552Z,16.30
2022-09-03T20:11:30.838Z,16.40
2022-09-03T20:14:13.939Z,16.20
2022-09-03T20:16:40.634Z,16.00
2022-09-03T20:19:07.314Z,16.00
2022-09-03T20:21:34.043Z,16.00
2022-09-03T20:24:12.474Z,15.90
2022-09-03T20:26:57.541Z,15.90
2022-09-03T20:29:30.119Z,15.80
2022-09-03T20:31:56.779Z,15.90
2022-09-03T20:34:23.720Z,15.90
2022-09-03T20:37:13.490Z,15.90
2022-09-03T20:39:46.219Z,15.90
2022-09-03T20:42:18.927Z,16.90
2022-09-03T20:45:05.947Z,15.90
2022-09-03T20:47:46.432Z,15.90
2022-09-03T20:50:37.329Z,16.00
2022-09-03T20:53:19.512Z,16.00
2022-09-03T20:55:49.220Z,16.00
2022-09-03T20:58:21.098Z,17.70
2022-09-03T21:00:52.451Z,17.60
2022-09-03T21:03:25.879Z,16.10
2022-09-03T21:05:56.259Z,16.10
2022-09-03T21:08:22.992Z,16.10
2022-09-03T21:10:56.080Z,16.20
2022-09-03T21:13:38.326Z,16.20
2022-09-03T21:16:18.388Z,16.20
2022-09-03T21:18:48.290Z,16.20
2022-09-03T21:21:36.276Z,16.20
2022-09-03T21:24:14.595Z,16.10
2022-09-03T21:26:46.184Z,16.10
2022-09-03T21:29:22.538Z,16.10
2022-09-03T21:31:57.285Z,16.00
2022-09-03T21:34:41.112Z,16.00
2022-09-03T21:37:11.409Z,16.00
2022-09-03T21:39:48.682Z,16.00
2022-09-03T21:42:18.518Z,16.00
2022-09-03T21:44:49.468Z,16.00
2022-09-03T21:47:17.092Z,17.50
2022-09-03T21:49:43.699Z,16.90
2022-09-03T21:52:21.685Z,18.10
2022-09-03T21:54:48.507Z,16.00
2022-09-03T21:57:30.440Z,15.90
2022-09-03T22:00:07.020Z,15.70
2022-09-03T22:02:34.254Z,15.60
2022-09-03T22:05:01.580Z,15.50
2022-09-03T22:07:47.149Z,17.50
2022-09-03T22:10:35.418Z,15.40
2022-09-03T22:13:15.020Z,15.40
2022-09-03T22:15:43.380Z,15.30
2022-09-03T22:18:23.735Z,15.40
2022-09-03T22:21:13.417Z,15.40
2022-09-03T22:23:45.238Z,15.40
2022-09-03T22:26:22.627Z,16.50
2022-09-03T22:29:22.046Z,15.40
2022-09-03T22:31:48.772Z,15.30
2022-09-03T22:34:39.061Z,15.20
2022-09-03T22:37:10.965Z,15.20
2022-09-03T22:39:41.836Z,15.20
2022-09-03T22:42:11.743Z,15.10
2022-09-03T22:44:46.093Z,15.00
2022-09-03T22:47:24.739Z,14.90
2022-09-03T22:49:54.769Z,14.90
2022-09-03T22:52:42.592Z,15.00
2022-09-03T22:55:15.143Z,15.00
2022-09-03T22:57:46.156Z,15.00
2022-09-03T23:00:13.142Z,17.40
2022-09-03T23:02:41.327Z,15.00
2022-09-03T23:05:08.136Z,16.10
2022-09-03T23:07:52.645Z,15.00
2022-09-03T23:10:53.635Z,15.00
2022-09-03T23:13:23.167Z,15.00
2022-09-03T23:15:55.907Z,15.00
2022-09-03T23:18:26.968Z,16.30
2022-09-03T23:21:07.887Z,17.40
2022-09-03T23:23:36.110Z,15.00
2022-09-03T23:26:13.430Z,16.60
2022-09-03T23:28:49.197Z,16.70
2022-09-03T23:31:15.877Z,14.90
2022-09-03T23:33:42.585Z,15.00
2022-09-03T23:37:01.448Z,15.80
2022-09-03T23:39:35.877Z,14.60
2022-09-03T23:42:11.839Z,14.50
2022-09-03T23:45:02.046Z,14.50
2022-09-03T23:47:28.729Z,14.50
2022-09-03T23:50:02.362Z,15.70
2022-09-03T23:52:50.054Z,14.50
2022-09-03T23:55:30.522Z,14.50
2022-09-03T23:57:58.184Z,14.40
